createdAt,value
2018-09-22T00:00:51.132Z,2.80
2018-09-22T00:03:20.484Z,3.17
2018-09-22T00:05:49.359Z,2.90
2018-09-22T00:08:17.959Z,2.70
2018-09-22T00:10:46.922Z,2.67
2018-09-22T00:13:15.746Z,2.63
2018-09-22T00:15:44.476Z,2.90
2018-09-22T00:18:12.994Z,3.43
2018-09-22T00:20:43.493Z,2.77
2018-09-22T00:23:11.945Z,3.23
2018-09-22T00:25:40.410Z,2.20
2018-09-22T00:28:08.871Z,2.50
2018-09-22T00:30:37.860Z,2.57
2018-09-22T00:33:06.813Z,2.60
2018-09-22T00:35:35.301Z,2.43
2018-09-22T00:38:03.791Z,3.00
2018-09-22T00:40:32.255Z,2.03
2018-09-22T00:43:00.783Z,2.20
2018-09-22T00:45:29.510Z,2.33
2018-09-22T00:47:58.417Z,0.70
2018-09-22T00:50:27.766Z,2.00
2018-09-22T00:52:56.813Z,2.27
2018-09-22T00:55:25.903Z,2.40
2018-09-22T00:57:54.951Z,1.80
2018-09-22T01:00:25.077Z,2.00
2018-09-22T01:02:56.210Z,2.10
2018-09-22T01:05:25.333Z,1.80
2018-09-22T01:07:55.788Z,1.80
2018-09-22T01:10:27.008Z,1.90
2018-09-22T01:12:56.526Z,1.77
2018-09-22T01:15:25.833Z,1.60
2018-09-22T01:17:55.748Z,1.40
2018-09-22T01:20:30.570Z,1.40
2018-09-22T01:23:10.811Z,1.63
2018-09-22T01:25:43.423Z,1.40
2018-09-22T01:28:19.064Z,1.53
2018-09-22T01:30:53.966Z,2.00
2018-09-22T01:33:25.927Z,2.10
2018-09-22T01:38:40.710Z,1.60
2018-09-22T01:41:14.569Z,1.60
2018-09-22T01:43:48.099Z,1.63
2018-09-22T01:46:19.875Z,1.80
2018-09-22T01:48:55.036Z,2.03
2018-09-22T01:51:27.547Z,1.70
2018-09-22T01:54:01.707Z,1.90
2018-09-22T01:56:38.041Z,1.90
2018-09-22T01:59:11.221Z,2.27
2018-09-22T02:01:41.631Z,4.40
2018-09-22T02:04:11.636Z,1.20
2018-09-22T02:06:41.505Z,1.80
2018-09-22T02:09:12.032Z,2.50
2018-09-22T02:11:41.937Z,1.60
2018-09-22T02:14:13.069Z,2.13
2018-09-22T02:16:42.976Z,1.60
2018-09-22T02:19:12.889Z,1.40
2018-09-22T02:21:44.648Z,1.70
2018-09-22T02:24:14.394Z,1.60
2018-09-22T02:26:43.453Z,1.40
2018-09-22T02:29:13.380Z,1.33
2018-09-22T02:31:42.524Z,1.57
2018-09-22T02:34:11.580Z,1.37
2018-09-22T02:36:40.412Z,1.80
2018-09-22T02:39:11.097Z,1.10
2018-09-22T02:41:40.923Z,1.50
2018-09-22T02:44:09.925Z,3.20
2018-09-22T02:46:40.378Z,1.20
2018-09-22T02:49:09.248Z,1.40
2018-09-22T02:51:38.142Z,1.30
2018-09-22T02:54:07.382Z,1.47
2018-09-22T02:56:36.426Z,1.80
2018-09-22T02:59:07.788Z,1.50
2018-09-22T03:01:37.594Z,1.70
2018-09-22T03:04:08.010Z,1.63
2018-09-22T03:06:39.178Z,1.10
2018-09-22T03:09:12.046Z,1.37
2018-09-22T03:11:41.001Z,1.40
2018-09-22T03:14:10.235Z,1.27
2018-09-22T03:16:39.414Z,1.50
2018-09-22T03:19:08.445Z,1.63
2018-09-22T03:21:37.669Z,1.70
2018-09-22T03:24:07.241Z,1.50
2018-09-22T03:26:36.863Z,2.23
2018-09-22T03:29:06.519Z,2.73
2018-09-22T03:31:36.837Z,1.50
2018-09-22T03:34:06.198Z,1.30
2018-09-22T03:36:35.195Z,1.40
2018-09-22T03:39:05.907Z,2.10
2018-09-22T03:41:34.894Z,1.30
2018-09-22T03:44:04.030Z,1.80
2018-09-22T03:46:33.415Z,1.87
2018-09-22T03:49:02.430Z,2.17
2018-09-22T03:51:31.334Z,1.70
2018-09-22T03:54:00.410Z,2.03
2018-09-22T03:56:29.362Z,1.63
2018-09-22T03:58:58.418Z,1.83
2018-09-22T04:01:27.271Z,2.23
2018-09-22T04:03:56.718Z,1.50
2018-09-22T04:06:25.760Z,1.70
2018-09-22T04:08:54.922Z,1.53
2018-09-22T04:11:24.364Z,1.40
2018-09-22T04:13:53.590Z,1.40
2018-09-22T04:16:22.676Z,1.60
2018-09-22T04:18:51.789Z,1.83
2018-09-22T04:21:21.016Z,1.40
2018-09-22T04:23:50.151Z,1.73
2018-09-22T04:26:19.607Z,1.33
2018-09-22T04:28:49.473Z,1.10
2018-09-22T04:31:19.183Z,1.47
2018-09-22T04:33:48.359Z,1.73
2018-09-22T04:36:17.772Z,1.50
2018-09-22T04:38:48.765Z,1.27
2018-09-22T04:41:17.263Z,1.60
2018-09-22T04:43:45.739Z,1.80
2018-09-22T04:46:14.361Z,1.13
2018-09-22T04:48:43.193Z,1.60
2018-09-22T04:51:12.398Z,1.70
2018-09-22T04:53:42.730Z,1.50
2018-09-22T04:56:11.634Z,2.17
2018-09-22T04:58:41.032Z,1.40
2018-09-22T05:01:10.352Z,2.30
2018-09-22T05:03:40.309Z,1.97
2018-09-22T05:06:09.654Z,1.40
2018-09-22T05:08:38.734Z,1.50
2018-09-22T05:11:08.329Z,1.80
2018-09-22T05:13:36.901Z,1.70
2018-09-22T05:16:07.474Z,1.33
2018-09-22T05:18:37.688Z,1.50
2018-09-22T05:21:09.874Z,2.60
2018-09-22T05:23:39.946Z,2.40
2018-09-22T05:26:08.564Z,1.50
2018-09-22T05:28:37.826Z,1.70
2018-09-22T05:31:07.267Z,1.60
2018-09-22T05:33:36.624Z,1.40
2018-09-22T05:36:06.327Z,1.63
2018-09-22T05:38:35.591Z,1.60
2018-09-22T05:41:04.261Z,1.47
2018-09-22T05:43:37.647Z,1.47
2018-09-22T05:46:17.251Z,1.50
2018-09-22T05:49:03.631Z,1.67
2018-09-22T05:51:39.220Z,1.80
2018-09-22T05:54:09.487Z,1.60
2018-09-22T05:56:48.066Z,1.50
2018-09-22T05:59:22.412Z,1.60
2018-09-22T06:01:58.909Z,2.63
2018-09-22T06:04:36.905Z,1.50
2018-09-22T06:07:11.325Z,1.87
2018-09-22T06:09:43.837Z,2.23
2018-09-22T06:12:19.782Z,1.70
2018-09-22T06:14:49.162Z,1.50
2018-09-22T06:17:20.610Z,1.50
2018-09-22T06:19:50.213Z,2.20
2018-09-22T06:22:21.580Z,1.50
2018-09-22T06:24:58.246Z,2.13
2018-09-22T06:27:30.364Z,2.03
2018-09-22T06:30:03.122Z,1.80
2018-09-22T06:32:32.822Z,1.83
2018-09-22T06:35:02.446Z,1.30
2018-09-22T06:37:39.665Z,1.63
2018-09-22T06:40:11.373Z,1.60
2018-09-22T06:42:43.741Z,2.00
2018-09-22T06:45:14.885Z,2.93
2018-09-22T06:47:44.682Z,1.90
2018-09-22T06:52:55.631Z,2.47
2018-09-22T06:55:39.144Z,2.40
2018-09-22T06:58:13.844Z,2.40
2018-09-22T07:00:46.127Z,1.63
2018-09-22T07:03:17.711Z,1.70
2018-09-22T07:05:57.381Z,1.63
2018-09-22T07:08:33.669Z,1.77
2018-09-22T07:11:09.734Z,2.00
2018-09-22T07:13:42.231Z,1.57
2018-09-22T07:16:14.677Z,1.83
2018-09-22T07:18:47.989Z,2.03
2018-09-22T07:21:29.896Z,1.97
2018-09-22T07:24:11.082Z,1.80
2018-09-22T07:26:41.012Z,1.90
2018-09-22T07:29:25.139Z,2.60
2018-09-22T07:31:54.754Z,1.80
2018-09-22T07:34:27.142Z,1.80
2018-09-22T07:37:00.136Z,1.47
2018-09-22T07:39:44.581Z,1.70
2018-09-22T07:42:22.461Z,2.20
2018-09-22T07:44:55.748Z,1.60
2018-09-22T07:47:33.508Z,2.63
2018-09-22T07:50:20.096Z,1.87
2018-09-22T07:52:49.362Z,1.80
2018-09-22T07:55:26.220Z,1.63
2018-09-22T07:57:55.548Z,1.97
2018-09-22T08:00:29.286Z,1.63
2018-09-22T08:02:58.199Z,1.97
2018-09-22T08:05:27.479Z,2.20
2018-09-22T08:07:56.501Z,1.93
2018-09-22T08:13:13.311Z,1.70
2018-09-22T08:15:46.226Z,2.17
2018-09-22T08:18:26.200Z,2.67
2018-09-22T08:20:58.615Z,1.60
2018-09-22T08:23:34.677Z,2.10
2018-09-22T08:26:08.730Z,2.30
2018-09-22T08:28:43.686Z,1.90
2018-09-22T08:31:18.811Z,1.90
2018-09-22T08:33:55.549Z,1.80
2018-09-22T08:36:35.214Z,2.63
2018-09-22T08:39:08.833Z,2.37
2018-09-22T08:41:42.774Z,1.83
2018-09-22T08:44:18.574Z,1.90
2018-09-22T08:46:48.918Z,1.60
2018-09-22T08:49:21.599Z,2.13
2018-09-22T08:52:02.956Z,1.80
2018-09-22T08:54:31.711Z,1.90
2018-09-22T08:57:00.760Z,1.60
2018-09-22T08:59:30.008Z,1.53
2018-09-22T09:01:59.269Z,2.07
2018-09-22T09:04:28.323Z,1.77
2018-09-22T09:06:57.673Z,2.30
2018-09-22T09:09:27.673Z,1.70
2018-09-22T09:11:56.767Z,1.73
2018-09-22T09:14:28.864Z,2.57
2018-09-22T09:17:01.215Z,2.27
2018-09-22T09:22:31.499Z,1.60
2018-09-22T09:25:01.733Z,1.73
2018-09-22T09:27:30.920Z,1.50
2018-09-22T09:30:07.660Z,1.80
2018-09-22T09:32:46.492Z,2.40
2018-09-22T09:38:07.640Z,1.70
2018-09-22T09:40:36.334Z,1.73
2018-09-22T09:43:10.116Z,1.90
2018-09-22T09:45:40.680Z,1.93
2018-09-22T09:48:09.491Z,1.60
2018-09-22T09:50:38.626Z,1.80
2018-09-22T09:53:17.370Z,1.70
2018-09-22T09:55:45.958Z,2.13
2018-09-22T09:58:14.567Z,1.70
2018-09-22T10:01:03.968Z,1.80
2018-09-22T10:03:34.974Z,1.80
2018-09-22T10:06:11.312Z,1.70
2018-09-22T10:08:42.230Z,1.63
2018-09-22T10:11:11.880Z,2.50
2018-09-22T10:13:44.344Z,2.33
2018-09-22T10:16:17.491Z,1.80
2018-09-22T10:18:50.560Z,1.70
2018-09-22T10:21:29.080Z,1.77
2018-09-22T10:27:17.714Z,1.70
2018-09-22T10:29:50.950Z,1.77
2018-09-22T10:32:21.394Z,1.80
2018-09-22T10:34:59.175Z,1.80
2018-09-22T10:37:33.213Z,1.60
2018-09-22T10:40:05.384Z,1.87
2018-09-22T10:42:36.785Z,1.90
2018-09-22T10:45:13.608Z,2.10
2018-09-22T10:47:50.679Z,1.70
2018-09-22T10:50:23.907Z,1.90
2018-09-22T10:52:52.691Z,1.50
2018-09-22T10:55:26.051Z,1.70
2018-09-22T10:57:55.511Z,1.67
2018-09-22T11:00:24.906Z,2.97
2018-09-22T11:02:57.665Z,1.87
2018-09-22T11:05:32.095Z,2.10
2018-09-22T11:11:00.682Z,1.70
2018-09-22T11:13:29.514Z,2.40
2018-09-22T11:18:35.717Z,3.23
2018-09-22T11:21:07.350Z,2.20
2018-09-22T11:23:47.159Z,1.77
2018-09-22T11:26:18.070Z,1.60
2018-09-22T11:28:49.515Z,2.00
2018-09-22T11:31:18.089Z,2.10
2018-09-22T11:33:46.732Z,1.50
2018-09-22T11:36:15.636Z,2.23
2018-09-22T11:38:44.398Z,1.97
2018-09-22T11:41:15.186Z,1.93
2018-09-22T11:43:43.701Z,1.90
2018-09-22T11:46:13.179Z,1.80
2018-09-22T11:48:41.907Z,1.60
2018-09-22T11:51:10.842Z,1.70
2018-09-22T11:53:39.433Z,1.60
2018-09-22T11:56:08.247Z,2.50
2018-09-22T11:58:36.805Z,1.50
2018-09-22T12:01:05.348Z,1.90
2018-09-22T12:03:33.800Z,1.67
2018-09-22T12:06:02.497Z,1.57
2018-09-22T12:08:31.067Z,1.60
2018-09-22T12:10:59.804Z,2.30
2018-09-22T12:13:28.420Z,1.53
2018-09-22T12:15:57.224Z,2.77
2018-09-22T12:18:31.616Z,1.90
2018-09-22T12:21:00.736Z,1.90
2018-09-22T12:23:29.447Z,1.70
2018-09-22T12:25:58.188Z,1.70
2018-09-22T12:28:26.770Z,2.80
2018-09-22T12:31:11.360Z,1.80
2018-09-22T12:33:50.128Z,2.10
2018-09-22T12:36:18.959Z,1.80
2018-09-22T12:38:48.902Z,1.70
2018-09-22T12:41:17.704Z,1.37
2018-09-22T12:43:46.614Z,1.60
2018-09-22T12:46:15.578Z,1.37
2018-09-22T12:48:44.234Z,1.40
2018-09-22T12:51:20.873Z,2.03
2018-09-22T12:54:05.751Z,1.40
2018-09-22T12:59:28.549Z,1.80
2018-09-22T13:04:35.073Z,1.60
2018-09-22T13:09:54.362Z,1.60
2018-09-22T13:16:02.493Z,1.40
2018-09-22T13:18:40.483Z,1.50
2018-09-22T13:21:32.842Z,1.67
2018-09-22T13:24:16.436Z,1.43
2018-09-22T13:26:54.259Z,1.83
2018-09-22T13:30:16.840Z,1.90
2018-09-22T13:32:55.085Z,1.77
2018-09-22T13:41:07.816Z,1.73
2018-09-22T13:46:48.044Z,2.30
2018-09-22T13:49:25.178Z,1.63
2018-09-22T13:57:35.170Z,2.10
2018-09-22T14:00:21.536Z,1.80
2018-09-22T14:03:02.097Z,1.87
2018-09-22T14:08:34.968Z,2.43
2018-09-22T14:11:10.701Z,1.87
2018-09-22T14:13:59.151Z,1.60
2018-09-22T14:16:33.869Z,1.40
2018-09-22T14:19:11.802Z,2.00
2018-09-22T14:21:51.402Z,2.40
2018-09-22T14:27:17.005Z,1.80
2018-09-22T14:30:01.198Z,1.90
2018-09-22T14:32:42.447Z,1.93
2018-09-22T14:35:20.147Z,1.80
2018-09-22T14:37:59.595Z,2.60
2018-09-22T14:40:51.601Z,2.00
2018-09-22T14:46:33.502Z,1.90
2018-09-22T14:49:12.810Z,1.77
2018-09-22T14:52:00.187Z,1.60
2018-09-22T14:54:50.299Z,2.10
2018-09-22T14:57:37.885Z,1.77
2018-09-22T15:00:18.434Z,2.13
2018-09-22T15:06:06.169Z,1.90
2018-09-22T15:08:38.397Z,2.77
2018-09-22T15:11:17.175Z,2.00
2018-09-22T15:13:51.343Z,2.17
2018-09-22T15:16:29.077Z,1.82
2018-09-22T15:19:12.843Z,1.77
2018-09-22T15:21:44.189Z,2.13
2018-09-22T15:24:13.107Z,2.20
2018-09-22T15:26:46.773Z,2.60
2018-09-22T15:29:26.573Z,3.30
2018-09-22T15:32:02.181Z,2.60
2018-09-22T15:34:34.963Z,3.70
2018-09-22T15:37:07.158Z,2.83
2018-09-22T15:39:46.042Z,2.33
2018-09-22T15:42:21.266Z,2.63
2018-09-22T15:44:57.845Z,2.50
2018-09-22T15:47:42.754Z,2.73
2018-09-22T15:50:14.639Z,3.17
2018-09-22T15:52:47.948Z,3.30
2018-09-22T15:55:24.350Z,6.57
2018-09-22T15:58:04.519Z,3.27
2018-09-22T16:00:34.657Z,3.17
2018-09-22T16:03:09.252Z,2.80
2018-09-22T16:05:37.963Z,2.87
2018-09-22T16:08:11.628Z,2.73
2018-09-22T16:10:42.499Z,3.23
2018-09-22T16:13:15.365Z,2.93
2018-09-22T16:15:45.640Z,3.00
2018-09-22T16:18:17.346Z,2.87
2018-09-22T16:20:51.364Z,3.33
2018-09-22T16:23:27.486Z,3.60
2018-09-22T16:25:58.897Z,2.67
2018-09-22T16:28:39.217Z,4.73
2018-09-22T16:31:14.255Z,6.97
2018-09-22T16:36:33.183Z,5.70
2018-09-22T16:39:05.911Z,6.70
2018-09-22T16:41:38.135Z,5.60
2018-09-22T16:44:11.707Z,5.70
2018-09-22T16:46:43.735Z,5.63
2018-09-22T16:49:22.085Z,9.00
2018-09-22T16:51:56.351Z,2.63
2018-09-22T16:54:31.863Z,4.03
2018-09-22T16:57:06.110Z,3.60
2018-09-22T16:59:38.255Z,4.03
2018-09-22T17:02:23.840Z,3.67
2018-09-22T17:04:53.873Z,3.23
2018-09-22T17:07:28.769Z,2.77
2018-09-22T17:10:03.799Z,3.00
2018-09-22T17:12:38.827Z,3.03
2018-09-22T17:15:11.361Z,3.23
2018-09-22T17:17:44.842Z,2.63
2018-09-22T17:20:30.845Z,2.33
2018-09-22T17:23:08.782Z,3.30
2018-09-22T17:25:54.907Z,3.70
2018-09-22T17:28:35.792Z,3.90
2018-09-22T17:31:17.456Z,8.80
2018-09-22T17:33:58.278Z,5.03
2018-09-22T17:39:34.895Z,4.00
2018-09-22T17:42:12.679Z,5.53
2018-09-22T17:44:59.682Z,5.10
2018-09-22T17:47:48.806Z,4.30
2018-09-22T17:50:50.848Z,4.80
2018-09-22T17:53:29.146Z,5.40
2018-09-22T17:59:03.681Z,5.87
2018-09-22T18:01:38.763Z,5.20
2018-09-22T18:04:39.509Z,5.17
2018-09-22T18:07:21.643Z,5.17
2018-09-22T18:10:09.130Z,5.90
2018-09-22T18:12:53.851Z,4.67
2018-09-22T18:15:43.018Z,5.37
2018-09-22T18:18:21.132Z,5.70
2018-09-22T18:24:28.392Z,5.63
2018-09-22T18:27:08.989Z,5.10
2018-09-22T18:29:52.757Z,4.50
2018-09-22T18:32:47.318Z,4.90
2018-09-22T18:38:23.460Z,4.60
2018-09-22T18:41:26.782Z,3.70
2018-09-22T18:47:17.926Z,4.00
2018-09-22T18:49:50.594Z,4.30
2018-09-22T18:52:21.659Z,4.00
2018-09-22T18:55:00.991Z,5.33
2018-09-22T18:57:47.567Z,3.40
2018-09-22T19:00:40.559Z,3.40
2018-09-22T19:03:15.007Z,2.90
2018-09-22T19:05:46.149Z,3.90
2018-09-22T19:08:23.383Z,3.30
2018-09-22T19:10:57.649Z,3.90
2018-09-22T19:13:31.062Z,2.90
2018-09-22T19:16:08.165Z,3.10
2018-09-22T19:18:52.231Z,2.90
2018-09-22T19:21:25.161Z,2.87
2018-09-22T19:24:01.997Z,2.77
2018-09-22T19:29:36.778Z,2.80
2018-09-22T19:32:13.997Z,2.70
2018-09-22T19:34:52.965Z,2.40
2018-09-22T19:37:38.727Z,2.73
2018-09-22T19:40:12.562Z,2.50
2018-09-22T19:42:47.399Z,2.90
2018-09-22T19:45:25.088Z,2.37
2018-09-22T19:47:57.458Z,2.60
2018-09-22T19:50:34.363Z,2.30
2018-09-22T19:53:04.726Z,2.60
2018-09-22T19:55:33.326Z,2.73
2018-09-22T19:58:02.035Z,2.50
2018-09-22T20:00:36.756Z,2.50
2018-09-22T20:03:05.330Z,2.47
2018-09-22T20:05:34.116Z,3.07
2018-09-22T20:08:02.903Z,2.73
2018-09-22T20:10:31.784Z,2.90
2018-09-22T20:13:00.387Z,2.60
2018-09-22T20:15:28.957Z,2.40
2018-09-22T20:17:57.589Z,2.77
2018-09-22T20:20:26.202Z,2.90
2018-09-22T20:22:54.770Z,2.50
2018-09-22T20:25:23.265Z,2.90
2018-09-22T20:27:51.911Z,2.50
2018-09-22T20:30:20.685Z,2.27
2018-09-22T20:32:49.217Z,2.37
2018-09-22T20:35:18.941Z,2.10
2018-09-22T20:37:47.764Z,1.87
2018-09-22T20:40:16.456Z,1.80
2018-09-22T20:42:44.967Z,1.83
2018-09-22T20:45:15.748Z,1.80
2018-09-22T20:47:45.127Z,2.40
2018-09-22T20:50:13.997Z,2.20
2018-09-22T20:52:43.156Z,2.30
2018-09-22T20:55:12.165Z,1.80
2018-09-22T20:57:42.456Z,2.20
2018-09-22T21:00:19.753Z,2.03
2018-09-22T21:02:52.514Z,2.40
2018-09-22T21:05:29.303Z,2.60
2018-09-22T21:07:59.324Z,2.53
2018-09-22T21:10:32.106Z,1.93
2018-09-22T21:13:36.778Z,2.37
2018-09-22T21:16:17.916Z,1.97
2018-09-22T21:18:47.072Z,2.13
2018-09-22T21:21:24.414Z,1.90
2018-09-22T21:24:09.346Z,1.90
2018-09-22T21:26:40.764Z,2.00
2018-09-22T21:29:09.952Z,1.77
2018-09-22T21:31:42.015Z,1.90
2018-09-22T21:34:11.881Z,1.70
2018-09-22T21:36:40.892Z,1.70
2018-09-22T21:39:10.671Z,1.70
2018-09-22T21:41:39.758Z,2.83
2018-09-22T21:44:11.180Z,2.00
2018-09-22T21:46:40.076Z,1.70
2018-09-22T21:49:10.827Z,1.60
2018-09-22T21:51:39.957Z,2.10
2018-09-22T21:54:09.212Z,2.53
2018-09-22T21:56:40.173Z,1.87
2018-09-22T21:59:10.181Z,1.80
2018-09-22T22:01:41.088Z,2.07
2018-09-22T22:04:10.925Z,1.60
2018-09-22T22:06:39.813Z,1.83
2018-09-22T22:09:13.197Z,2.30
2018-09-22T22:11:42.087Z,2.17
2018-09-22T22:14:11.147Z,2.00
2018-09-22T22:16:40.229Z,2.07
2018-09-22T22:19:09.301Z,1.70
2018-09-22T22:21:38.261Z,2.07
2018-09-22T22:24:08.215Z,2.10
2018-09-22T22:26:42.194Z,1.50
2018-09-22T22:29:11.076Z,1.90
2018-09-22T22:31:40.202Z,1.43
2018-09-22T22:34:09.226Z,1.83
2018-09-22T22:36:38.434Z,1.90
2018-09-22T22:39:07.789Z,1.70
2018-09-22T22:41:36.720Z,1.77
2018-09-22T22:44:07.356Z,1.57
2018-09-22T22:46:36.334Z,1.30
2018-09-22T22:49:05.228Z,1.47
2018-09-22T22:51:33.706Z,1.30
2018-09-22T22:54:02.140Z,1.77
2018-09-22T22:56:31.156Z,1.33
2018-09-22T22:58:59.937Z,1.37
2018-09-22T23:01:30.797Z,1.30
2018-09-22T23:03:59.385Z,1.60
2018-09-22T23:06:27.863Z,1.60
2018-09-22T23:08:57.427Z,1.60
2018-09-22T23:11:29.406Z,1.43
2018-09-22T23:14:00.049Z,1.40
2018-09-22T23:16:29.293Z,1.63
2018-09-22T23:18:59.109Z,1.47
2018-09-22T23:21:27.949Z,1.20
2018-09-22T23:23:56.460Z,1.20
2018-09-22T23:26:25.488Z,1.10
2018-09-22T23:28:56.750Z,1.30
2018-09-22T23:31:25.334Z,1.20
2018-09-22T23:33:53.782Z,1.37
2018-09-22T23:36:22.432Z,1.40
2018-09-22T23:38:51.570Z,1.17
2018-09-22T23:41:21.676Z,1.30
2018-09-22T23:43:50.726Z,1.47
2018-09-22T23:46:20.562Z,1.50
2018-09-22T23:48:49.376Z,1.43
2018-09-22T23:51:19.516Z,1.40
2018-09-22T23:53:49.202Z,1.20
2018-09-22T23:56:19.047Z,1.57
2018-09-22T23:58:51.670Z,1.53
